createdAt,value
2023-05-09T00:01:12.075Z,98556.63
2023-05-09T00:03:39.335Z,98492.66
2023-05-09T00:06:06.918Z,98561.13
2023-05-09T00:08:33.917Z,98554.50
2023-05-09T00:11:01.571Z,98559.78
2023-05-09T00:13:28.546Z,98556.34
2023-05-09T00:15:55.129Z,98507.69
2023-05-09T00:18:22.242Z,98531.66
2023-05-09T00:20:49.516Z,98491.31
2023-05-09T00:23:16.787Z,98515.31
2023-05-09T00:25:43.629Z,98489.34
2023-05-09T00:28:10.236Z,98524.28
2023-05-09T00:30:36.907Z,98505.16
2023-05-09T00:33:03.558Z,98502.16
2023-05-09T00:35:32.297Z,98501.81
2023-05-09T00:37:59.510Z,98510.25
2023-05-09T00:40:26.380Z,98504.41
2023-05-09T00:42:53.132Z,98477.16
2023-05-09T00:45:19.825Z,98495.81
2023-05-09T00:47:46.586Z,98470.31
2023-05-09T00:50:13.934Z,98443.94
2023-05-09T00:52:41.624Z,98472.16
2023-05-09T00:55:08.872Z,98464.69
2023-05-09T00:57:37.112Z,98409.56
2023-05-09T01:00:06.893Z,98452.13
2023-05-09T01:02:33.622Z,98442.81
2023-05-09T01:05:00.291Z,98433.25
2023-05-09T01:08:07.425Z,98412.47
2023-05-09T01:10:42.600Z,98371.41
2023-05-09T01:13:28.213Z,98411.63
2023-05-09T01:16:28.575Z,98383.19
2023-05-09T01:19:08.412Z,98410.63
2023-05-09T01:21:35.598Z,98388.75
2023-05-09T01:24:33.590Z,98392.28
2023-05-09T01:27:44.674Z,98386.59
2023-05-09T01:30:13.610Z,98383.19
2023-05-09T01:32:43.354Z,98353.25
2023-05-09T01:35:13.454Z,98370.66
2023-05-09T01:37:43.459Z,98370.44
2023-05-09T01:40:18.474Z,98326.94
2023-05-09T01:42:52.208Z,98349.94
2023-05-09T01:45:19.412Z,98340.53
2023-05-09T01:47:49.023Z,98340.28
2023-05-09T01:50:18.135Z,98332.50
2023-05-09T01:52:48.616Z,98319.47
2023-05-09T01:55:16.854Z,98323.41
2023-05-09T01:57:45.204Z,98321.28
2023-05-09T02:00:14.362Z,98300.50
2023-05-09T02:02:42.022Z,98294.94
2023-05-09T02:05:13.466Z,98278.47
2023-05-09T02:07:42.166Z,98267.53
2023-05-09T02:10:11.041Z,98243.00
2023-05-09T02:12:38.327Z,98190.94
2023-05-09T02:15:06.678Z,98179.31
2023-05-09T02:17:33.263Z,98193.94
2023-05-09T02:20:00.135Z,98176.22
2023-05-09T02:22:27.509Z,98163.78
2023-05-09T02:24:54.212Z,98161.97
2023-05-09T02:27:21.701Z,98126.69
2023-05-09T02:29:55.055Z,98137.47
2023-05-09T02:32:26.814Z,98129.16
2023-05-09T02:34:54.711Z,98110.84
2023-05-09T02:37:22.523Z,98118.38
2023-05-09T02:39:49.197Z,98028.47
2023-05-09T02:42:25.163Z,98063.78
2023-05-09T02:44:55.117Z,98058.53
2023-05-09T02:47:25.726Z,98056.84
2023-05-09T02:49:52.468Z,98043.84
2023-05-09T02:52:19.033Z,98045.78
2023-05-09T02:54:45.804Z,98024.53
2023-05-09T02:57:12.330Z,97976.50
2023-05-09T02:59:38.866Z,98007.19
2023-05-09T03:02:05.452Z,97997.09
2023-05-09T03:04:32.078Z,97998.50
2023-05-09T03:06:58.846Z,97971.34
2023-05-09T03:09:25.531Z,97971.19
2023-05-09T03:11:52.142Z,97950.31
2023-05-09T03:14:18.879Z,97938.94
2023-05-09T03:16:45.555Z,97955.59
2023-05-09T03:19:12.135Z,97944.94
2023-05-09T03:21:38.907Z,97932.84
2023-05-09T03:24:08.399Z,97813.31
2023-05-09T03:26:37.823Z,97913.66
2023-05-09T03:29:04.325Z,97855.25
2023-05-09T03:31:31.026Z,97859.13
2023-05-09T03:33:57.866Z,97898.59
2023-05-09T03:36:24.904Z,97888.94
2023-05-09T03:38:51.415Z,97884.81
2023-05-09T03:41:18.799Z,97868.59
2023-05-09T03:43:45.905Z,97865.00
2023-05-09T03:46:12.532Z,97866.69
2023-05-09T03:48:39.193Z,97859.63
2023-05-09T03:51:06.111Z,97850.09
2023-05-09T03:53:32.790Z,97839.13
2023-05-09T03:55:59.391Z,97839.97
2023-05-09T03:58:26.430Z,97788.16
2023-05-09T04:00:53.739Z,97836.06
2023-05-09T04:03:20.798Z,97843.84
2023-05-09T04:05:47.660Z,97836.69
2023-05-09T04:08:14.240Z,97836.41
2023-05-09T04:10:40.837Z,97837.53
2023-05-09T04:13:07.857Z,97800.63
2023-05-09T04:15:34.470Z,97826.72
2023-05-09T04:18:00.994Z,97818.38
2023-05-09T04:20:27.912Z,97784.41
2023-05-09T04:22:54.491Z,97821.09
2023-05-09T04:25:21.202Z,97821.50
2023-05-09T04:27:47.878Z,97831.44
2023-05-09T04:30:14.927Z,97834.56
2023-05-09T04:32:45.936Z,97837.44
2023-05-09T04:35:14.039Z,97838.47
2023-05-09T04:37:42.000Z,97842.00
2023-05-09T04:40:09.371Z,97842.16
2023-05-09T04:42:36.145Z,97832.03
2023-05-09T04:45:03.093Z,97848.53
2023-05-09T04:47:29.631Z,97836.16
2023-05-09T04:49:56.197Z,97853.41
2023-05-09T04:52:22.865Z,97788.97
2023-05-09T04:54:49.574Z,97841.09
2023-05-09T04:57:18.305Z,97830.38
2023-05-09T04:59:46.228Z,97866.66
2023-05-09T05:02:13.092Z,97822.44
2023-05-09T05:04:39.824Z,97847.41
2023-05-09T05:07:06.383Z,97838.56
2023-05-09T05:09:33.101Z,97849.19
2023-05-09T05:12:02.432Z,97871.13
2023-05-09T05:14:30.409Z,97885.50
2023-05-09T05:16:56.919Z,97924.03
2023-05-09T05:19:23.472Z,97942.31
2023-05-09T05:21:50.054Z,97964.66
2023-05-09T05:24:16.655Z,97985.59
2023-05-09T05:26:43.245Z,97972.31
2023-05-09T05:29:09.962Z,98025.97
2023-05-09T05:31:36.585Z,98054.31
2023-05-09T05:34:03.291Z,98092.47
2023-05-09T05:36:29.845Z,98103.78
2023-05-09T05:38:56.351Z,98129.94
2023-05-09T05:41:23.587Z,98151.47
2023-05-09T05:43:51.542Z,98169.31
2023-05-09T05:46:20.116Z,98183.94
2023-05-09T05:48:46.780Z,98205.84
2023-05-09T05:51:13.352Z,98239.69
2023-05-09T05:53:40.101Z,98227.34
2023-05-09T05:56:06.895Z,98224.84
2023-05-09T05:58:35.279Z,98178.69
2023-05-09T06:01:02.450Z,98118.88
2023-05-09T06:03:29.090Z,98118.72
2023-05-09T06:05:56.615Z,98135.00
2023-05-09T06:08:23.367Z,98052.69
2023-05-09T06:10:49.910Z,98016.44
2023-05-09T06:13:16.525Z,97959.66
2023-05-09T06:15:43.272Z,97910.91
2023-05-09T06:18:09.923Z,97886.31
2023-05-09T06:20:36.470Z,97894.06
2023-05-09T06:23:03.077Z,97926.13
2023-05-09T06:25:29.701Z,97985.84
2023-05-09T06:27:56.526Z,98047.38
2023-05-09T06:30:26.810Z,98018.69
2023-05-09T06:32:55.061Z,98026.69
2023-05-09T06:35:22.189Z,98069.56
2023-05-09T06:37:49.335Z,98034.50
2023-05-09T06:40:17.164Z,98137.75
2023-05-09T06:42:44.291Z,98149.00
2023-05-09T06:45:11.595Z,98228.19
2023-05-09T06:47:38.264Z,98684.72
2023-05-09T06:50:05.294Z,99099.00
2023-05-09T06:52:31.819Z,99137.22
2023-05-09T06:54:58.379Z,99166.66
2023-05-09T06:57:25.330Z,99171.13
2023-05-09T06:59:51.899Z,99134.97
2023-05-09T07:02:18.602Z,99139.72
2023-05-09T07:04:45.318Z,99142.56
2023-05-09T07:07:12.029Z,99146.56
2023-05-09T07:09:38.553Z,99141.47
2023-05-09T07:12:05.477Z,99153.66
2023-05-09T07:14:32.004Z,99120.88
2023-05-09T07:17:13.836Z,99160.13
2023-05-09T07:19:45.111Z,99160.72
2023-05-09T07:22:13.509Z,99132.00
2023-05-09T07:24:40.147Z,99163.94
2023-05-09T07:27:06.754Z,99149.97
2023-05-09T07:29:39.302Z,99147.06
2023-05-09T07:32:06.396Z,99149.84
2023-05-09T07:34:33.128Z,99132.78
2023-05-09T07:37:00.420Z,99109.03
2023-05-09T07:39:26.951Z,99118.19
2023-05-09T07:41:53.577Z,99144.66
2023-05-09T07:44:20.153Z,99149.28
2023-05-09T07:46:46.859Z,99164.19
2023-05-09T07:49:13.623Z,99146.88
2023-05-09T07:51:40.142Z,99148.88
2023-05-09T07:54:07.075Z,99107.88
2023-05-09T07:56:33.582Z,99133.72
2023-05-09T07:59:00.124Z,99139.34
2023-05-09T08:01:26.703Z,99137.31
2023-05-09T08:03:53.623Z,99147.47
2023-05-09T08:06:20.463Z,99130.88
2023-05-09T08:08:49.693Z,99111.72
2023-05-09T08:11:16.237Z,99132.13
2023-05-09T08:13:42.881Z,99128.56
2023-05-09T08:16:09.487Z,99129.75
2023-05-09T08:18:36.116Z,99126.06
2023-05-09T08:21:02.751Z,99101.66
2023-05-09T08:23:30.415Z,99120.47
2023-05-09T08:25:57.014Z,99107.56
2023-05-09T08:28:24.317Z,99110.19
2023-05-09T08:30:52.186Z,99103.34
2023-05-09T08:33:19.192Z,99070.03
2023-05-09T08:35:46.316Z,99102.09
2023-05-09T08:38:12.927Z,99097.44
2023-05-09T08:40:41.230Z,99088.44
2023-05-09T08:43:08.771Z,99088.38
2023-05-09T08:45:51.480Z,99075.94
2023-05-09T08:48:18.582Z,99070.19
2023-05-09T08:50:56.314Z,98995.38
2023-05-09T08:53:23.314Z,99079.91
2023-05-09T08:55:53.268Z,99073.28
2023-05-09T08:58:22.704Z,99062.56
2023-05-09T09:00:50.669Z,99066.53
2023-05-09T09:03:18.412Z,99069.69
2023-05-09T09:05:45.623Z,99060.22
2023-05-09T09:08:12.523Z,99067.63
2023-05-09T09:10:43.444Z,99065.25
2023-05-09T09:13:12.621Z,99080.88
2023-05-09T09:15:41.679Z,99062.38
2023-05-09T09:18:10.204Z,99067.59
2023-05-09T09:20:57.964Z,99083.38
2023-05-09T09:23:26.323Z,99067.13
2023-05-09T09:26:01.562Z,99058.72
2023-05-09T09:28:28.587Z,99050.19
2023-05-09T09:30:55.584Z,99051.09
2023-05-09T09:33:27.052Z,99051.63
2023-05-09T09:35:55.473Z,99033.50
2023-05-09T09:38:23.631Z,99027.88
2023-05-09T09:40:56.888Z,99015.72
2023-05-09T09:43:30.947Z,99018.41
2023-05-09T09:46:01.385Z,99019.31
2023-05-09T09:48:33.730Z,99033.06
2023-05-09T09:51:11.372Z,99019.22
2023-05-09T09:53:42.146Z,99018.84
2023-05-09T09:56:09.469Z,99018.38
2023-05-09T09:58:36.556Z,98996.44
2023-05-09T10:01:10.914Z,99006.78
2023-05-09T10:03:42.096Z,99010.34
2023-05-09T10:06:16.537Z,99001.00
2023-05-09T10:08:49.020Z,98973.47
2023-05-09T10:11:15.841Z,98990.78
2023-05-09T10:13:43.793Z,98982.41
2023-05-09T10:16:11.719Z,98978.53
2023-05-09T10:18:42.715Z,98968.28
2023-05-09T10:21:15.124Z,98945.03
2023-05-09T10:23:48.600Z,98958.34
2023-05-09T10:26:23.057Z,98965.66
2023-05-09T10:28:54.890Z,98966.78
2023-05-09T10:31:28.078Z,98950.22
2023-05-09T10:33:56.010Z,98953.56
2023-05-09T10:36:29.191Z,98926.00
2023-05-09T10:38:56.277Z,98886.31
2023-05-09T10:41:23.814Z,98916.78
2023-05-09T10:43:50.645Z,98950.16
2023-05-09T10:46:17.804Z,98914.34
2023-05-09T10:48:45.556Z,98906.22
2023-05-09T10:51:15.026Z,98896.06
2023-05-09T10:53:46.065Z,98909.81
2023-05-09T10:56:27.099Z,98894.72
2023-05-09T10:58:54.659Z,98871.25
2023-05-09T11:01:31.266Z,98902.09
2023-05-09T11:04:00.015Z,98902.25
2023-05-09T11:06:42.219Z,98890.84
2023-05-09T11:09:33.414Z,98883.38
2023-05-09T11:12:05.972Z,98880.00
2023-05-09T11:14:54.114Z,98834.31
2023-05-09T11:17:24.701Z,98872.00
2023-05-09T11:19:51.391Z,98878.69
2023-05-09T11:22:30.762Z,98853.81
2023-05-09T11:25:04.776Z,98760.16
2023-05-09T11:27:45.985Z,98843.28
2023-05-09T11:30:17.476Z,98827.97
2023-05-09T11:32:45.793Z,98839.28
2023-05-09T11:35:21.013Z,98745.19
2023-05-09T11:37:48.218Z,98815.63
2023-05-09T11:40:17.445Z,98795.72
2023-05-09T11:42:54.716Z,98805.22
2023-05-09T11:45:30.462Z,98811.56
2023-05-09T11:47:58.762Z,98793.03
2023-05-09T11:50:25.703Z,98799.97
2023-05-09T11:52:53.641Z,98788.44
2023-05-09T11:55:32.726Z,98778.13
2023-05-09T11:57:59.533Z,98768.44
2023-05-09T12:00:26.690Z,98773.66
2023-05-09T12:02:53.924Z,98767.41
2023-05-09T12:05:22.931Z,98766.66
2023-05-09T12:07:50.137Z,98756.03
2023-05-09T12:10:20.591Z,98741.38
2023-05-09T12:12:52.022Z,98748.31
2023-05-09T12:15:20.182Z,98761.50
2023-05-09T12:17:50.378Z,98741.81
2023-05-09T12:20:18.415Z,98748.59
2023-05-09T12:22:45.037Z,98743.22
2023-05-09T12:25:12.170Z,98738.63
2023-05-09T12:27:41.094Z,98725.78
2023-05-09T12:30:10.526Z,98740.84
2023-05-09T12:32:40.321Z,98737.03
2023-05-09T12:35:09.549Z,98731.91
2023-05-09T12:37:36.237Z,98732.41
2023-05-09T12:40:07.135Z,98729.78
2023-05-09T12:42:35.260Z,98729.59
2023-05-09T12:45:03.277Z,98692.47
2023-05-09T12:47:31.242Z,98703.56
2023-05-09T12:49:59.399Z,98742.44
2023-05-09T12:52:34.602Z,98730.00
2023-05-09T12:55:12.566Z,98726.03
2023-05-09T12:57:41.016Z,98701.34
2023-05-09T13:00:10.092Z,98700.38
2023-05-09T13:02:38.548Z,98703.94
2023-05-09T13:05:18.854Z,98686.59
2023-05-09T13:07:47.249Z,98690.59
2023-05-09T13:10:21.295Z,98691.88
2023-05-09T13:12:49.061Z,98683.16
2023-05-09T13:15:17.255Z,98680.56
2023-05-09T13:17:44.319Z,98675.81
2023-05-09T13:20:11.107Z,98647.47
2023-05-09T13:22:37.843Z,98649.59
2023-05-09T13:25:05.085Z,98647.13
2023-05-09T13:27:32.979Z,98622.16
2023-05-09T13:29:59.976Z,98628.78
2023-05-09T13:32:26.686Z,98646.91
2023-05-09T13:34:53.370Z,98654.22
2023-05-09T13:37:19.946Z,98651.94
2023-05-09T13:39:47.240Z,98634.03
2023-05-09T13:42:14.524Z,98637.72
2023-05-09T13:44:41.977Z,98633.72
2023-05-09T13:47:08.543Z,98592.25
2023-05-09T13:49:35.147Z,98631.03
2023-05-09T13:52:01.652Z,98591.31
2023-05-09T13:54:29.825Z,98597.66
2023-05-09T13:56:56.413Z,98619.03
2023-05-09T13:59:23.027Z,98602.56
2023-05-09T14:01:49.755Z,98585.44
2023-05-09T14:04:16.849Z,98603.53
2023-05-09T14:06:48.385Z,98596.94
2023-05-09T14:09:15.726Z,98591.69
2023-05-09T14:11:42.988Z,98593.31
2023-05-09T14:14:09.544Z,98564.94
2023-05-09T14:16:36.187Z,98573.13
2023-05-09T14:19:02.806Z,98591.53
2023-05-09T14:21:29.476Z,98570.97
2023-05-09T14:23:56.027Z,98563.13
2023-05-09T14:26:22.859Z,98556.13
2023-05-09T14:28:49.361Z,98534.06
2023-05-09T14:31:15.998Z,98509.53
2023-05-09T14:33:42.531Z,98512.44
2023-05-09T14:36:09.416Z,98525.34
2023-05-09T14:38:36.919Z,98540.94
2023-05-09T14:41:04.344Z,98543.34
2023-05-09T14:43:30.941Z,98543.25
2023-05-09T14:45:57.563Z,98527.22
2023-05-09T14:48:24.128Z,98539.28
2023-05-09T14:50:54.929Z,98534.00
2023-05-09T14:53:22.582Z,98535.13
2023-05-09T14:55:50.141Z,98516.97
2023-05-09T14:58:17.987Z,98501.47
2023-05-09T15:00:45.528Z,98482.09
2023-05-09T15:03:12.415Z,98507.91
2023-05-09T15:05:39.423Z,98503.72
2023-05-09T15:08:06.840Z,98507.16
2023-05-09T15:10:33.736Z,98471.81
2023-05-09T15:13:00.819Z,98487.97
2023-05-09T15:15:27.482Z,98487.44
2023-05-09T15:17:54.191Z,98475.06
2023-05-09T15:20:20.830Z,98500.97
2023-05-09T15:22:48.815Z,98469.63
2023-05-09T15:25:16.466Z,98489.94
2023-05-09T15:27:43.193Z,98463.63
2023-05-09T15:30:11.000Z,98476.34
2023-05-09T15:32:41.346Z,98475.28
2023-05-09T15:35:08.578Z,98471.28
2023-05-09T15:37:35.932Z,98453.78
2023-05-09T15:40:02.895Z,98451.06
2023-05-09T15:42:29.424Z,98469.94
2023-05-09T15:44:56.608Z,98415.59
2023-05-09T15:47:23.215Z,98457.72
2023-05-09T15:49:49.794Z,98440.97
2023-05-09T15:52:16.588Z,98453.78
2023-05-09T15:54:45.279Z,98422.22
2023-05-09T15:57:13.427Z,98421.16
2023-05-09T15:59:40.593Z,98441.81
2023-05-09T16:02:07.220Z,98447.69
2023-05-09T16:04:34.252Z,98440.63
2023-05-09T16:07:07.151Z,98445.53
2023-05-09T16:09:34.025Z,98419.75
2023-05-09T16:12:00.623Z,98432.06
2023-05-09T16:14:27.575Z,98410.97
2023-05-09T16:16:54.558Z,98426.31
2023-05-09T16:19:22.186Z,98424.66
2023-05-09T16:21:48.815Z,98421.94
2023-05-09T16:24:15.473Z,98386.91
2023-05-09T16:26:42.019Z,98416.34
2023-05-09T16:29:08.680Z,98410.56
2023-05-09T16:31:35.905Z,98402.94
2023-05-09T16:34:02.960Z,98399.94
2023-05-09T16:36:30.326Z,98392.41
2023-05-09T16:38:57.039Z,98399.03
2023-05-09T16:41:23.694Z,98367.25
2023-05-09T16:43:50.302Z,98376.00
2023-05-09T16:46:18.225Z,98394.63
2023-05-09T16:48:44.773Z,98386.75
2023-05-09T16:51:11.427Z,98385.59
2023-05-09T16:53:38.106Z,98382.53
2023-05-09T16:56:06.144Z,98388.13
2023-05-09T16:58:33.455Z,98377.78
2023-05-09T17:01:02.247Z,98364.16
2023-05-09T17:03:29.292Z,98385.78
2023-05-09T17:05:55.939Z,98355.44
2023-05-09T17:08:22.685Z,98339.47
2023-05-09T17:10:49.224Z,98335.78
2023-05-09T17:13:15.738Z,98375.50
2023-05-09T17:15:42.898Z,98281.00
2023-05-09T17:18:09.423Z,98366.25
2023-05-09T17:20:36.092Z,98361.09
2023-05-09T17:23:02.648Z,98351.00
2023-05-09T17:25:29.166Z,98306.28
2023-05-09T17:27:55.737Z,98355.19
2023-05-09T17:30:23.318Z,98350.25
2023-05-09T17:32:50.284Z,98327.25
2023-05-09T17:35:19.430Z,98314.09
2023-05-09T17:37:46.446Z,98336.84
2023-05-09T17:40:13.510Z,98347.16
2023-05-09T17:42:40.685Z,98339.31
2023-05-09T17:45:07.890Z,98324.41
2023-05-09T17:47:34.534Z,98345.06
2023-05-09T17:50:01.119Z,98289.94
2023-05-09T17:52:27.626Z,98305.78
2023-05-09T17:54:54.343Z,98320.91
2023-05-09T17:57:20.966Z,98299.53
2023-05-09T17:59:48.049Z,98319.19
2023-05-09T18:02:14.889Z,98319.50
2023-05-09T18:04:41.450Z,98336.59
2023-05-09T18:07:08.711Z,98336.47
2023-05-09T18:09:35.433Z,98287.91
2023-05-09T18:12:01.981Z,98324.75
2023-05-09T18:14:28.510Z,98329.53
2023-05-09T18:16:55.105Z,98311.44
2023-05-09T18:19:21.641Z,98320.25
2023-05-09T18:21:48.529Z,98321.59
2023-05-09T18:24:16.892Z,98329.81
2023-05-09T18:26:43.845Z,98304.38
2023-05-09T18:29:10.414Z,98308.66
2023-05-09T18:31:38.898Z,98339.41
2023-05-09T18:34:06.147Z,98302.69
2023-05-09T18:36:32.978Z,98319.03
2023-05-09T18:38:59.684Z,98285.56
2023-05-09T18:41:26.806Z,98333.31
2023-05-09T18:43:53.295Z,98309.97
2023-05-09T18:46:21.333Z,98342.28
2023-05-09T18:48:50.631Z,98332.41
2023-05-09T18:51:18.432Z,98329.16
2023-05-09T18:53:45.063Z,98336.81
2023-05-09T18:56:11.665Z,98311.13
2023-05-09T18:58:38.294Z,98325.94
2023-05-09T19:01:05.164Z,98336.63
2023-05-09T19:03:32.001Z,98340.91
2023-05-09T19:05:59.096Z,98331.00
2023-05-09T19:08:26.333Z,98234.03
2023-05-09T19:10:53.476Z,98271.34
2023-05-09T19:13:20.066Z,98285.88
2023-05-09T19:15:47.513Z,98326.81
2023-05-09T19:18:14.309Z,98309.84
2023-05-09T19:20:40.911Z,98289.63
2023-05-09T19:23:07.419Z,98322.56
2023-05-09T19:25:34.126Z,98310.56
2023-05-09T19:28:00.794Z,98317.06
2023-05-09T19:30:27.287Z,98313.00
2023-05-09T19:32:53.935Z,98305.06
2023-05-09T19:35:20.760Z,98267.06
2023-05-09T19:37:47.317Z,98283.72
2023-05-09T19:40:14.310Z,98281.41
2023-05-09T19:42:42.034Z,98304.00
2023-05-09T19:45:09.125Z,98264.81
2023-05-09T19:47:35.769Z,98302.38
2023-05-09T19:50:02.591Z,98303.25
2023-05-09T19:52:29.987Z,98302.00
2023-05-09T19:54:56.582Z,98275.13
2023-05-09T19:57:23.168Z,98258.16
2023-05-09T19:59:49.713Z,98297.78
2023-05-09T20:02:16.280Z,98270.44
2023-05-09T20:04:49.560Z,98310.28
2023-05-09T20:07:17.523Z,98301.09
2023-05-09T20:09:44.446Z,98304.50
2023-05-09T20:12:11.105Z,98304.97
2023-05-09T20:14:37.730Z,98297.97
2023-05-09T20:17:05.355Z,98300.97
2023-05-09T20:19:33.196Z,98310.16
2023-05-09T20:22:01.202Z,98306.41
2023-05-09T20:24:28.187Z,98303.66
2023-05-09T20:26:55.239Z,98282.66
2023-05-09T20:29:21.900Z,98305.81
2023-05-09T20:31:48.517Z,98304.34
2023-05-09T20:34:17.911Z,98299.69
2023-05-09T20:36:49.502Z,98305.38
2023-05-09T20:39:17.773Z,98285.28
2023-05-09T20:41:48.637Z,98287.41
2023-05-09T20:44:16.888Z,98300.69
2023-05-09T20:46:45.065Z,98287.56
2023-05-09T20:49:11.632Z,98292.63
2023-05-09T20:51:38.493Z,98301.00
2023-05-09T20:54:05.322Z,98296.50
2023-05-09T20:56:35.417Z,98299.84
2023-05-09T20:59:04.209Z,98293.53
2023-05-09T21:01:32.661Z,98297.34
2023-05-09T21:03:59.373Z,98277.38
2023-05-09T21:06:25.976Z,98241.34
2023-05-09T21:08:52.598Z,98213.25
2023-05-09T21:11:19.261Z,98172.59
2023-05-09T21:13:45.765Z,98170.69
2023-05-09T21:16:12.458Z,98145.53
2023-05-09T21:18:39.105Z,98126.56
2023-05-09T21:21:08.843Z,98134.81
2023-05-09T21:23:35.694Z,98120.19
2023-05-09T21:26:02.579Z,98086.97
2023-05-09T21:28:29.542Z,98069.75
2023-05-09T21:30:56.421Z,98024.31
2023-05-09T21:33:23.213Z,97974.28
2023-05-09T21:35:49.730Z,97971.91
2023-05-09T21:38:16.431Z,97922.66
2023-05-09T21:40:42.998Z,97923.88
2023-05-09T21:43:09.798Z,97936.25
2023-05-09T21:45:36.389Z,97883.28
2023-05-09T21:48:03.069Z,97900.78
2023-05-09T21:50:29.859Z,97878.91
2023-05-09T21:52:57.561Z,97871.28
2023-05-09T21:55:24.260Z,97864.69
2023-05-09T21:57:50.811Z,97876.34
2023-05-09T22:00:18.049Z,97869.13
2023-05-09T22:02:44.824Z,97878.53
2023-05-09T22:05:12.272Z,97864.31
2023-05-09T22:07:39.359Z,97854.16
2023-05-09T22:10:07.063Z,97823.78
2023-05-09T22:12:33.952Z,97848.56
2023-05-09T22:15:00.532Z,97816.78
2023-05-09T22:17:27.150Z,97743.19
2023-05-09T22:19:53.756Z,97683.69
2023-05-09T22:22:21.504Z,97683.81
2023-05-09T22:24:49.759Z,97673.41
2023-05-09T22:27:16.390Z,97675.69
2023-05-09T22:29:42.951Z,97625.47
2023-05-09T22:32:09.551Z,97647.44
2023-05-09T22:34:36.217Z,97621.28
2023-05-09T22:37:02.914Z,97572.06
2023-05-09T22:39:29.949Z,97556.53
2023-05-09T22:41:56.977Z,97537.78
2023-05-09T22:44:23.551Z,97534.13
2023-05-09T22:46:50.090Z,97526.53
2023-05-09T22:49:16.653Z,97491.88
2023-05-09T22:51:43.148Z,97418.91
2023-05-09T22:54:09.751Z,97474.72
2023-05-09T22:56:36.388Z,97469.88
2023-05-09T22:59:02.977Z,97487.03
2023-05-09T23:01:29.514Z,97528.03
2023-05-09T23:03:56.101Z,97537.69
2023-05-09T23:06:22.614Z,97550.47
2023-05-09T23:08:49.200Z,97557.44
2023-05-09T23:11:15.770Z,97560.09
2023-05-09T23:13:42.648Z,97554.38
2023-05-09T23:16:09.285Z,97569.59
2023-05-09T23:18:35.858Z,97597.31
2023-05-09T23:21:02.478Z,97585.03
2023-05-09T23:23:29.086Z,97584.16
2023-05-09T23:25:55.586Z,97553.31
2023-05-09T23:28:25.432Z,97582.13
2023-05-09T23:30:53.762Z,97560.75
2023-05-09T23:33:20.464Z,97566.94
2023-05-09T23:35:48.116Z,97546.09
2023-05-09T23:38:14.741Z,97575.00
2023-05-09T23:40:44.831Z,97544.31
2023-05-09T23:43:11.747Z,97518.72
2023-05-09T23:45:38.467Z,97505.34
2023-05-09T23:48:05.516Z,97494.53
2023-05-09T23:50:32.398Z,97517.09
2023-05-09T23:52:58.908Z,97526.13
2023-05-09T23:55:25.405Z,97533.50
2023-05-09T23:57:52.012Z,97509.56
